Portada
METAR-TAF:

METAR-TAF

Aeroports :

Luxor, Egipte

latitud: 25-40N, longitud: 032-42E, altitud: 93 m

Observació

L'informe es va fer fa 27 minuts, a les 04:00 UTC
Vent 2 kt del Sud-Oest
Temperatura 27°C
Humitat 51%
Pressió 1009 hPa
Visibilitat 10 km o més
sense núvols per sota de 1500 mi sense presència de cumulonimbus.

METAR: HELX 230400Z 23002KT CAVOK 27/16 Q1009 NOSIG

Hora: 06:27 (04:27 UTC)

Pronòstic

L'informe es va fer fa 5 hores i 27 minuts, a les 23:00 UTC
Pronòstic vàlid del 23 a les 00 UTC al 24 a les 06 UTC
Vent 3 kt amb direcció variable
Visibilitat 10 km o més
sense núvols per sota de 1500 mi sense presència de cumulonimbus.
Evolucionant progressivament
l' 23 a les 09 UTC al 23 a les 11 UTC
Vent 10 kt del Nord-Oest

TAF: HELX 222300Z 2300/2406 VRB03KT CAVOK BECMG 2309/2311 32010KT

Observacions i pronòstics meteorològics de més de 4000 aeroports (METAR i TAF).

Les estacions disponibles són els punts grocs i vermells al mapa.

Posi el ratolí al punt desitjat per veure el nom de l'estació.

Feu clic per veure les observacions i els pronòstics meteorològics.

Per canviar el mapa: feu clic els botons verds amb una creu de color negre per apropar; al botó verd amb un guió per allunyar la imatge; o en les fletxes verdes per a mapes adjacents.


METAR-TAF: